sensor_id;sensor_type;location;lat;lon;timestamp;P1;durP1;ratioP1;P2;durP2;ratioP2
727;SDS011;347;48.780;9.158;2022-09-09T00:01:49;11.20;;;10.50;;
727;SDS011;347;48.780;9.158;2022-09-09T00:06:53;10.70;;;10.40;;
727;SDS011;347;48.780;9.158;2022-09-09T00:09:40;10.73;;;10.33;;
727;SDS011;347;48.780;9.158;2022-09-09T00:12:19;11.57;;;10.60;;
727;SDS011;347;48.780;9.158;2022-09-09T00:15:02;10.20;;;9.90;;
727;SDS011;347;48.780;9.158;2022-09-09T00:17:38;10.43;;;10.03;;
727;SDS011;347;48.780;9.158;2022-09-09T00:20:16;10.80;;;10.20;;
727;SDS011;347;48.780;9.158;2022-09-09T00:22:54;10.87;;;10.50;;
727;SDS011;347;48.780;9.158;2022-09-09T00:28:20;10.83;;;10.07;;
727;SDS011;347;48.780;9.158;2022-09-09T00:30:49;10.43;;;10.03;;
727;SDS011;347;48.780;9.158;2022-09-09T00:33:16;11.40;;;10.80;;
727;SDS011;347;48.780;9.158;2022-09-09T00:35:49;10.80;;;10.23;;
727;SDS011;347;48.780;9.158;2022-09-09T00:38:39;10.40;;;10.10;;
727;SDS011;347;48.780;9.158;2022-09-09T00:41:20;10.03;;;9.73;;
727;SDS011;347;48.780;9.158;2022-09-09T00:44:00;9.70;;;9.40;;
727;SDS011;347;48.780;9.158;2022-09-09T00:49:24;10.53;;;9.83;;
727;SDS011;347;48.780;9.158;2022-09-09T00:52:09;10.50;;;10.10;;
727;SDS011;347;48.780;9.158;2022-09-09T00:57:40;10.00;;;9.67;;
727;SDS011;347;48.780;9.158;2022-09-09T01:11:20;10.50;;;10.10;;
727;SDS011;347;48.780;9.158;2022-09-09T01:16:44;10.67;;;10.37;;
727;SDS011;347;48.780;9.158;2022-09-09T01:19:14;10.50;;;10.20;;
727;SDS011;347;48.780;9.158;2022-09-09T01:21:50;11.30;;;10.80;;
727;SDS011;347;48.780;9.158;2022-09-09T01:24:50;11.07;;;10.77;;
727;SDS011;347;48.780;9.158;2022-09-09T01:27:27;10.60;;;10.30;;
727;SDS011;347;48.780;9.158;2022-09-09T01:29:53;10.40;;;10.00;;
727;SDS011;347;48.780;9.158;2022-09-09T01:35:14;11.00;;;10.60;;
727;SDS011;347;48.780;9.158;2022-09-09T01:37:48;11.67;;;10.80;;
727;SDS011;347;48.780;9.158;2022-09-09T01:40:13;11.27;;;10.70;;
727;SDS011;347;48.780;9.158;2022-09-09T01:42:39;10.87;;;10.47;;
727;SDS011;347;48.780;9.158;2022-09-09T01:45:05;10.50;;;10.20;;
727;SDS011;347;48.780;9.158;2022-09-09T01:47:31;10.60;;;10.20;;
727;SDS011;347;48.780;9.158;2022-09-09T01:49:57;9.90;;;9.60;;
727;SDS011;347;48.780;9.158;2022-09-09T01:52:23;10.23;;;9.83;;
727;SDS011;347;48.780;9.158;2022-09-09T01:54:49;10.70;;;10.30;;
727;SDS011;347;48.780;9.158;2022-09-09T01:57:17;10.70;;;10.40;;
727;SDS011;347;48.780;9.158;2022-09-09T02:08:21;11.40;;;11.00;;
727;SDS011;347;48.780;9.158;2022-09-09T02:13:23;11.57;;;11.17;;
727;SDS011;347;48.780;9.158;2022-09-09T02:15:52;11.73;;;11.23;;
727;SDS011;347;48.780;9.158;2022-09-09T02:18:37;11.50;;;11.00;;
727;SDS011;347;48.780;9.158;2022-09-09T02:21:22;11.13;;;10.73;;
727;SDS011;347;48.780;9.158;2022-09-09T02:23:49;11.87;;;11.17;;
727;SDS011;347;48.780;9.158;2022-09-09T02:26:18;11.60;;;11.20;;
727;SDS011;347;48.780;9.158;2022-09-09T02:28:50;11.43;;;11.13;;
727;SDS011;347;48.780;9.158;2022-09-09T02:31:20;11.33;;;10.93;;
727;SDS011;347;48.780;9.158;2022-09-09T02:33:50;11.00;;;10.60;;
727;SDS011;347;48.780;9.158;2022-09-09T02:36:21;12.10;;;11.60;;
727;SDS011;347;48.780;9.158;2022-09-09T02:38:50;11.87;;;11.47;;
727;SDS011;347;48.780;9.158;2022-09-09T02:41:32;11.87;;;11.47;;
727;SDS011;347;48.780;9.158;2022-09-09T02:43:59;12.10;;;11.50;;
727;SDS011;347;48.780;9.158;2022-09-09T02:49:10;12.70;;;12.10;;
727;SDS011;347;48.780;9.158;2022-09-09T02:54:31;11.63;;;11.23;;
727;SDS011;347;48.780;9.158;2022-09-09T02:57:01;12.00;;;11.50;;
727;SDS011;347;48.780;9.158;2022-09-09T02:59:29;11.90;;;11.40;;
727;SDS011;347;48.780;9.158;2022-09-09T03:01:55;12.93;;;12.10;;
727;SDS011;347;48.780;9.158;2022-09-09T03:04:21;12.23;;;11.30;;
727;SDS011;347;48.780;9.158;2022-09-09T03:06:47;12.20;;;11.80;;
727;SDS011;347;48.780;9.158;2022-09-09T03:09:13;12.40;;;12.00;;
727;SDS011;347;48.780;9.158;2022-09-09T03:11:38;12.77;;;12.37;;
727;SDS011;347;48.780;9.158;2022-09-09T03:14:04;12.13;;;11.73;;
727;SDS011;347;48.780;9.158;2022-09-09T03:16:30;12.40;;;12.10;;
727;SDS011;347;48.780;9.158;2022-09-09T03:18:58;11.63;;;11.27;;
727;SDS011;347;48.780;9.158;2022-09-09T03:21:23;13.03;;;11.97;;
727;SDS011;347;48.780;9.158;2022-09-09T03:23:50;12.03;;;11.60;;
727;SDS011;347;48.780;9.158;2022-09-09T03:26:16;12.50;;;12.10;;
727;SDS011;347;48.780;9.158;2022-09-09T03:28:42;12.80;;;12.30;;
727;SDS011;347;48.780;9.158;2022-09-09T03:31:08;12.10;;;11.70;;
727;SDS011;347;48.780;9.158;2022-09-09T03:33:35;12.80;;;12.40;;
727;SDS011;347;48.780;9.158;2022-09-09T03:36:02;13.00;;;12.30;;
727;SDS011;347;48.780;9.158;2022-09-09T03:38:28;12.60;;;12.07;;
727;SDS011;347;48.780;9.158;2022-09-09T03:40:54;12.20;;;11.80;;
727;SDS011;347;48.780;9.158;2022-09-09T03:43:22;12.67;;;11.87;;
727;SDS011;347;48.780;9.158;2022-09-09T03:45:49;11.83;;;11.53;;
727;SDS011;347;48.780;9.158;2022-09-09T03:48:15;12.50;;;12.10;;
727;SDS011;347;48.780;9.158;2022-09-09T03:50:45;11.93;;;11.63;;
727;SDS011;347;48.780;9.158;2022-09-09T03:53:11;12.40;;;11.90;;
727;SDS011;347;48.780;9.158;2022-09-09T03:55:38;12.50;;;12.00;;
727;SDS011;347;48.780;9.158;2022-09-09T03:58:04;12.43;;;11.83;;
727;SDS011;347;48.780;9.158;2022-09-09T04:00:29;13.00;;;12.50;;
727;SDS011;347;48.780;9.158;2022-09-09T04:02:55;11.50;;;11.20;;
727;SDS011;347;48.780;9.158;2022-09-09T04:05:21;13.67;;;12.97;;
727;SDS011;347;48.780;9.158;2022-09-09T04:07:47;13.53;;;12.93;;
727;SDS011;347;48.780;9.158;2022-09-09T04:10:13;12.77;;;12.37;;
727;SDS011;347;48.780;9.158;2022-09-09T04:12:38;12.17;;;11.83;;
727;SDS011;347;48.780;9.158;2022-09-09T04:15:04;12.87;;;12.33;;
727;SDS011;347;48.780;9.158;2022-09-09T04:17:30;12.67;;;12.20;;
727;SDS011;347;48.780;9.158;2022-09-09T04:19:56;13.20;;;12.80;;
727;SDS011;347;48.780;9.158;2022-09-09T04:22:22;12.60;;;12.20;;
727;SDS011;347;48.780;9.158;2022-09-09T04:24:48;13.50;;;13.10;;
727;SDS011;347;48.780;9.158;2022-09-09T04:27:13;13.70;;;13.30;;
727;SDS011;347;48.780;9.158;2022-09-09T04:29:39;12.67;;;12.27;;
727;SDS011;347;48.780;9.158;2022-09-09T04:32:04;12.50;;;12.00;;
727;SDS011;347;48.780;9.158;2022-09-09T04:34:30;13.00;;;12.50;;
727;SDS011;347;48.780;9.158;2022-09-09T04:36:56;13.13;;;12.47;;
727;SDS011;347;48.780;9.158;2022-09-09T04:39:22;12.80;;;12.30;;
727;SDS011;347;48.780;9.158;2022-09-09T04:41:47;12.50;;;12.10;;
727;SDS011;347;48.780;9.158;2022-09-09T04:44:14;13.10;;;12.70;;
727;SDS011;347;48.780;9.158;2022-09-09T04:46:40;14.10;;;13.07;;
727;SDS011;347;48.780;9.158;2022-09-09T04:49:06;13.20;;;12.60;;
727;SDS011;347;48.780;9.158;2022-09-09T04:51:32;14.17;;;13.47;;
727;SDS011;347;48.780;9.158;2022-09-09T04:53:58;13.07;;;12.40;;
727;SDS011;347;48.780;9.158;2022-09-09T04:56:23;13.10;;;12.60;;
727;SDS011;347;48.780;9.158;2022-09-09T04:58:52;12.23;;;11.83;;
727;SDS011;347;48.780;9.158;2022-09-09T05:01:19;13.77;;;13.27;;
727;SDS011;347;48.780;9.158;2022-09-09T05:03:46;13.93;;;13.47;;
727;SDS011;347;48.780;9.158;2022-09-09T05:06:17;12.97;;;12.47;;
727;SDS011;347;48.780;9.158;2022-09-09T05:08:44;13.70;;;12.97;;
727;SDS011;347;48.780;9.158;2022-09-09T05:11:43;13.73;;;13.00;;
727;SDS011;347;48.780;9.158;2022-09-09T05:14:03;13.77;;;13.27;;
727;SDS011;347;48.780;9.158;2022-09-09T05:16:29;17.00;;;13.90;;
727;SDS011;347;48.780;9.158;2022-09-09T05:18:55;13.20;;;12.70;;
727;SDS011;347;48.780;9.158;2022-09-09T05:21:21;13.17;;;12.67;;
727;SDS011;347;48.780;9.158;2022-09-09T05:23:48;13.10;;;12.60;;
727;SDS011;347;48.780;9.158;2022-09-09T05:26:17;14.03;;;13.40;;
727;SDS011;347;48.780;9.158;2022-09-09T05:28:45;13.73;;;13.27;;
727;SDS011;347;48.780;9.158;2022-09-09T05:31:12;13.20;;;12.80;;
727;SDS011;347;48.780;9.158;2022-09-09T05:33:39;13.60;;;13.00;;
727;SDS011;347;48.780;9.158;2022-09-09T05:36:08;14.30;;;13.70;;
727;SDS011;347;48.780;9.158;2022-09-09T05:38:38;14.90;;;14.20;;
727;SDS011;347;48.780;9.158;2022-09-09T05:41:05;14.43;;;13.73;;
727;SDS011;347;48.780;9.158;2022-09-09T05:43:31;14.60;;;13.90;;
727;SDS011;347;48.780;9.158;2022-09-09T05:46:02;14.10;;;13.50;;
727;SDS011;347;48.780;9.158;2022-09-09T05:48:29;13.70;;;13.20;;
727;SDS011;347;48.780;9.158;2022-09-09T05:50:57;13.57;;;12.97;;
727;SDS011;347;48.780;9.158;2022-09-09T05:53:23;13.80;;;13.20;;
727;SDS011;347;48.780;9.158;2022-09-09T05:55:49;14.20;;;13.70;;
727;SDS011;347;48.780;9.158;2022-09-09T05:58:15;14.70;;;14.20;;
727;SDS011;347;48.780;9.158;2022-09-09T06:00:42;14.13;;;13.70;;
727;SDS011;347;48.780;9.158;2022-09-09T06:03:11;14.90;;;14.10;;
727;SDS011;347;48.780;9.158;2022-09-09T06:05:37;14.20;;;13.70;;
727;SDS011;347;48.780;9.158;2022-09-09T06:08:03;13.80;;;13.20;;
727;SDS011;347;48.780;9.158;2022-09-09T06:10:29;14.50;;;14.00;;
727;SDS011;347;48.780;9.158;2022-09-09T06:12:54;13.60;;;13.10;;
727;SDS011;347;48.780;9.158;2022-09-09T06:15:20;15.40;;;14.43;;
727;SDS011;347;48.780;9.158;2022-09-09T06:17:45;14.10;;;13.57;;
727;SDS011;347;48.780;9.158;2022-09-09T06:20:12;14.07;;;13.47;;
727;SDS011;347;48.780;9.158;2022-09-09T06:22:41;14.07;;;13.50;;
727;SDS011;347;48.780;9.158;2022-09-09T06:25:07;14.63;;;13.93;;
727;SDS011;347;48.780;9.158;2022-09-09T06:27:34;14.90;;;14.10;;
727;SDS011;347;48.780;9.158;2022-09-09T06:30:00;14.30;;;13.70;;
727;SDS011;347;48.780;9.158;2022-09-09T06:32:25;13.40;;;13.00;;
727;SDS011;347;48.780;9.158;2022-09-09T06:34:51;13.30;;;12.90;;
727;SDS011;347;48.780;9.158;2022-09-09T06:37:17;14.07;;;13.27;;
727;SDS011;347;48.780;9.158;2022-09-09T06:39:43;13.50;;;13.00;;
727;SDS011;347;48.780;9.158;2022-09-09T06:42:09;13.77;;;13.27;;
727;SDS011;347;48.780;9.158;2022-09-09T06:44:34;13.87;;;13.37;;
727;SDS011;347;48.780;9.158;2022-09-09T06:47:01;13.80;;;13.20;;
727;SDS011;347;48.780;9.158;2022-09-09T06:49:26;14.50;;;13.60;;
727;SDS011;347;48.780;9.158;2022-09-09T06:51:52;14.03;;;13.43;;
727;SDS011;347;48.780;9.158;2022-09-09T06:54:19;13.27;;;12.77;;
727;SDS011;347;48.780;9.158;2022-09-09T06:56:45;14.37;;;13.87;;
727;SDS011;347;48.780;9.158;2022-09-09T06:59:11;14.50;;;13.80;;
727;SDS011;347;48.780;9.158;2022-09-09T07:01:41;13.67;;;13.17;;
727;SDS011;347;48.780;9.158;2022-09-09T07:04:11;14.67;;;13.83;;
727;SDS011;347;48.780;9.158;2022-09-09T07:06:40;14.47;;;13.67;;
727;SDS011;347;48.780;9.158;2022-09-09T07:09:09;14.90;;;13.90;;
727;SDS011;347;48.780;9.158;2022-09-09T07:11:43;14.70;;;13.90;;
727;SDS011;347;48.780;9.158;2022-09-09T07:14:10;15.10;;;13.80;;
727;SDS011;347;48.780;9.158;2022-09-09T07:16:42;14.30;;;13.60;;
727;SDS011;347;48.780;9.158;2022-09-09T07:19:09;14.80;;;14.10;;
727;SDS011;347;48.780;9.158;2022-09-09T07:21:36;14.43;;;13.53;;
727;SDS011;347;48.780;9.158;2022-09-09T07:24:01;13.80;;;13.30;;
727;SDS011;347;48.780;9.158;2022-09-09T07:26:29;14.00;;;13.50;;
727;SDS011;347;48.780;9.158;2022-09-09T07:28:55;14.47;;;13.87;;
727;SDS011;347;48.780;9.158;2022-09-09T07:31:26;14.10;;;13.50;;
727;SDS011;347;48.780;9.158;2022-09-09T07:33:55;14.50;;;13.90;;
727;SDS011;347;48.780;9.158;2022-09-09T07:36:23;14.60;;;14.10;;
727;SDS011;347;48.780;9.158;2022-09-09T07:38:51;13.83;;;13.33;;
727;SDS011;347;48.780;9.158;2022-09-09T07:41:33;14.30;;;13.70;;
727;SDS011;347;48.780;9.158;2022-09-09T07:44:08;14.27;;;13.77;;
727;SDS011;347;48.780;9.158;2022-09-09T07:46:36;14.10;;;13.60;;
727;SDS011;347;48.780;9.158;2022-09-09T07:49:04;14.33;;;13.63;;
727;SDS011;347;48.780;9.158;2022-09-09T07:51:35;13.23;;;12.80;;
727;SDS011;347;48.780;9.158;2022-09-09T07:54:06;14.23;;;13.67;;
727;SDS011;347;48.780;9.158;2022-09-09T07:56:34;14.50;;;13.90;;
727;SDS011;347;48.780;9.158;2022-09-09T07:59:01;12.70;;;12.30;;
727;SDS011;347;48.780;9.158;2022-09-09T08:01:28;12.60;;;12.20;;
727;SDS011;347;48.780;9.158;2022-09-09T08:04:00;13.10;;;12.40;;
727;SDS011;347;48.780;9.158;2022-09-09T08:06:32;13.27;;;12.60;;
727;SDS011;347;48.780;9.158;2022-09-09T08:09:00;12.70;;;12.30;;
727;SDS011;347;48.780;9.158;2022-09-09T08:11:27;12.03;;;11.50;;
727;SDS011;347;48.780;9.158;2022-09-09T08:13:53;12.53;;;12.03;;
727;SDS011;347;48.780;9.158;2022-09-09T08:16:23;12.77;;;12.27;;
727;SDS011;347;48.780;9.158;2022-09-09T08:18:52;12.40;;;12.00;;
727;SDS011;347;48.780;9.158;2022-09-09T08:21:21;12.53;;;12.03;;
727;SDS011;347;48.780;9.158;2022-09-09T08:23:55;12.90;;;12.30;;
727;SDS011;347;48.780;9.158;2022-09-09T08:26:22;13.43;;;12.80;;
727;SDS011;347;48.780;9.158;2022-09-09T08:28:50;12.20;;;11.90;;
727;SDS011;347;48.780;9.158;2022-09-09T08:31:19;12.87;;;12.47;;
727;SDS011;347;48.780;9.158;2022-09-09T08:33:46;12.70;;;12.13;;
727;SDS011;347;48.780;9.158;2022-09-09T08:36:16;12.87;;;12.43;;
727;SDS011;347;48.780;9.158;2022-09-09T08:38:43;13.30;;;12.80;;
727;SDS011;347;48.780;9.158;2022-09-09T08:44:19;13.30;;;12.70;;
727;SDS011;347;48.780;9.158;2022-09-09T08:52:00;13.00;;;12.40;;
727;SDS011;347;48.780;9.158;2022-09-09T08:54:27;13.70;;;13.20;;
727;SDS011;347;48.780;9.158;2022-09-09T08:56:58;12.90;;;12.50;;
727;SDS011;347;48.780;9.158;2022-09-09T08:59:23;12.50;;;12.00;;
727;SDS011;347;48.780;9.158;2022-09-09T09:01:58;13.47;;;12.87;;
727;SDS011;347;48.780;9.158;2022-09-09T09:10:09;13.97;;;13.10;;
727;SDS011;347;48.780;9.158;2022-09-09T09:12:46;12.30;;;11.83;;
727;SDS011;347;48.780;9.158;2022-09-09T09:15:25;12.20;;;11.60;;
727;SDS011;347;48.780;9.158;2022-09-09T09:17:56;12.30;;;11.73;;
727;SDS011;347;48.780;9.158;2022-09-09T09:23:09;12.40;;;12.00;;
727;SDS011;347;48.780;9.158;2022-09-09T09:25:52;12.90;;;12.30;;
727;SDS011;347;48.780;9.158;2022-09-09T09:28:25;12.60;;;12.20;;
727;SDS011;347;48.780;9.158;2022-09-09T09:30:55;13.10;;;12.50;;
727;SDS011;347;48.780;9.158;2022-09-09T09:33:34;12.43;;;12.03;;
727;SDS011;347;48.780;9.158;2022-09-09T09:36:19;12.63;;;12.13;;
727;SDS011;347;48.780;9.158;2022-09-09T09:38:52;12.10;;;11.53;;
727;SDS011;347;48.780;9.158;2022-09-09T09:44:00;11.90;;;11.43;;
727;SDS011;347;48.780;9.158;2022-09-09T09:46:27;11.40;;;10.80;;
727;SDS011;347;48.780;9.158;2022-09-09T09:48:57;11.23;;;10.90;;
727;SDS011;347;48.780;9.158;2022-09-09T09:51:30;11.63;;;11.20;;
727;SDS011;347;48.780;9.158;2022-09-09T09:56:38;11.30;;;11.00;;
727;SDS011;347;48.780;9.158;2022-09-09T09:59:05;11.60;;;11.20;;
727;SDS011;347;48.780;9.158;2022-09-09T10:01:44;10.90;;;10.50;;
727;SDS011;347;48.780;9.158;2022-09-09T10:04:14;11.80;;;10.90;;
727;SDS011;347;48.780;9.158;2022-09-09T10:06:42;11.47;;;10.87;;
727;SDS011;347;48.780;9.158;2022-09-09T10:09:21;11.70;;;11.20;;
727;SDS011;347;48.780;9.158;2022-09-09T10:22:54;10.97;;;10.57;;
727;SDS011;347;48.780;9.158;2022-09-09T10:32:09;11.10;;;10.60;;
727;SDS011;347;48.780;9.158;2022-09-09T10:39:56;11.47;;;11.00;;
727;SDS011;347;48.780;9.158;2022-09-09T10:42:53;11.30;;;10.77;;
727;SDS011;347;48.780;9.158;2022-09-09T10:45:38;11.10;;;10.67;;
727;SDS011;347;48.780;9.158;2022-09-09T10:48:31;11.37;;;10.30;;
727;SDS011;347;48.780;9.158;2022-09-09T10:56:42;10.83;;;10.43;;
727;SDS011;347;48.780;9.158;2022-09-09T10:59:20;11.73;;;11.13;;
727;SDS011;347;48.780;9.158;2022-09-09T11:02:29;10.30;;;9.93;;
727;SDS011;347;48.780;9.158;2022-09-09T11:05:05;11.37;;;10.87;;
727;SDS011;347;48.780;9.158;2022-09-09T11:07:51;10.50;;;10.00;;
727;SDS011;347;48.780;9.158;2022-09-09T11:13:01;11.63;;;10.90;;
727;SDS011;347;48.780;9.158;2022-09-09T11:15:43;11.07;;;10.60;;
727;SDS011;347;48.780;9.158;2022-09-09T11:18:13;11.23;;;10.60;;
727;SDS011;347;48.780;9.158;2022-09-09T11:20:43;10.60;;;10.20;;
727;SDS011;347;48.780;9.158;2022-09-09T11:23:13;10.50;;;10.00;;
727;SDS011;347;48.780;9.158;2022-09-09T11:25:44;10.07;;;9.70;;
727;SDS011;347;48.780;9.158;2022-09-09T11:28:40;9.67;;;9.37;;
727;SDS011;347;48.780;9.158;2022-09-09T11:36:48;10.40;;;10.10;;
727;SDS011;347;48.780;9.158;2022-09-09T11:44:39;8.20;;;7.90;;
727;SDS011;347;48.780;9.158;2022-09-09T11:50:06;8.20;;;7.90;;
727;SDS011;347;48.780;9.158;2022-09-09T11:52:42;8.97;;;8.47;;
727;SDS011;347;48.780;9.158;2022-09-09T11:55:26;10.20;;;9.70;;
727;SDS011;347;48.780;9.158;2022-09-09T11:58:03;10.47;;;10.07;;
727;SDS011;347;48.780;9.158;2022-09-09T12:00:50;9.27;;;9.00;;
727;SDS011;347;48.780;9.158;2022-09-09T12:08:58;9.60;;;9.30;;
727;SDS011;347;48.780;9.158;2022-09-09T12:11:39;8.60;;;8.40;;
727;SDS011;347;48.780;9.158;2022-09-09T12:14:18;8.67;;;8.47;;
727;SDS011;347;48.780;9.158;2022-09-09T12:16:44;9.30;;;9.00;;
727;SDS011;347;48.780;9.158;2022-09-09T12:19:20;9.63;;;9.33;;
727;SDS011;347;48.780;9.158;2022-09-09T12:24:41;11.07;;;10.67;;
727;SDS011;347;48.780;9.158;2022-09-09T12:27:16;10.43;;;10.13;;
727;SDS011;347;48.780;9.158;2022-09-09T12:29:48;10.60;;;10.20;;
727;SDS011;347;48.780;9.158;2022-09-09T12:32:22;10.70;;;10.30;;
727;SDS011;347;48.780;9.158;2022-09-09T12:39:55;10.80;;;10.50;;
727;SDS011;347;48.780;9.158;2022-09-09T12:42:40;10.20;;;9.80;;
727;SDS011;347;48.780;9.158;2022-09-09T12:45:14;9.60;;;9.30;;
727;SDS011;347;48.780;9.158;2022-09-09T12:47:57;11.17;;;10.57;;
727;SDS011;347;48.780;9.158;2022-09-09T12:50:29;10.33;;;9.83;;
727;SDS011;347;48.780;9.158;2022-09-09T12:52:57;10.20;;;9.90;;
727;SDS011;347;48.780;9.158;2022-09-09T12:55:30;10.23;;;9.93;;
727;SDS011;347;48.780;9.158;2022-09-09T12:57:59;10.40;;;10.10;;
727;SDS011;347;48.780;9.158;2022-09-09T13:00:29;9.90;;;9.60;;
727;SDS011;347;48.780;9.158;2022-09-09T13:02:57;10.00;;;9.70;;
727;SDS011;347;48.780;9.158;2022-09-09T13:05:26;10.57;;;10.07;;
727;SDS011;347;48.780;9.158;2022-09-09T13:08:04;10.23;;;9.77;;
727;SDS011;347;48.780;9.158;2022-09-09T13:10:35;11.33;;;10.70;;
727;SDS011;347;48.780;9.158;2022-09-09T13:13:23;10.30;;;9.90;;
727;SDS011;347;48.780;9.158;2022-09-09T13:15:53;10.70;;;10.40;;
727;SDS011;347;48.780;9.158;2022-09-09T13:18:24;10.90;;;10.50;;
727;SDS011;347;48.780;9.158;2022-09-09T13:20:54;10.73;;;10.43;;
727;SDS011;347;48.780;9.158;2022-09-09T13:23:22;10.27;;;9.97;;
727;SDS011;347;48.780;9.158;2022-09-09T13:25:57;10.50;;;10.20;;
727;SDS011;347;48.780;9.158;2022-09-09T13:28:29;10.33;;;9.83;;
727;SDS011;347;48.780;9.158;2022-09-09T13:30:56;10.47;;;10.00;;
727;SDS011;347;48.780;9.158;2022-09-09T13:33:30;10.30;;;9.73;;
727;SDS011;347;48.780;9.158;2022-09-09T13:35:59;10.50;;;10.20;;
727;SDS011;347;48.780;9.158;2022-09-09T13:39:16;10.37;;;9.93;;
727;SDS011;347;48.780;9.158;2022-09-09T13:41:19;10.40;;;10.10;;
727;SDS011;347;48.780;9.158;2022-09-09T13:44:20;10.37;;;9.97;;
727;SDS011;347;48.780;9.158;2022-09-09T13:47:00;10.27;;;9.97;;
727;SDS011;347;48.780;9.158;2022-09-09T13:49:31;9.90;;;9.60;;
727;SDS011;347;48.780;9.158;2022-09-09T13:52:05;10.83;;;10.53;;
727;SDS011;347;48.780;9.158;2022-09-09T13:54:47;10.50;;;10.20;;
727;SDS011;347;48.780;9.158;2022-09-09T13:57:18;10.37;;;10.07;;
727;SDS011;347;48.780;9.158;2022-09-09T13:59:46;10.83;;;10.43;;
727;SDS011;347;48.780;9.158;2022-09-09T14:02:13;10.37;;;10.03;;
727;SDS011;347;48.780;9.158;2022-09-09T14:04:39;11.73;;;11.13;;
727;SDS011;347;48.780;9.158;2022-09-09T14:07:07;10.97;;;10.30;;
727;SDS011;347;48.780;9.158;2022-09-09T14:09:36;10.67;;;10.10;;
727;SDS011;347;48.780;9.158;2022-09-09T14:12:02;10.20;;;9.90;;
727;SDS011;347;48.780;9.158;2022-09-09T14:14:28;10.43;;;10.13;;
727;SDS011;347;48.780;9.158;2022-09-09T14:16:54;10.90;;;10.50;;
727;SDS011;347;48.780;9.158;2022-09-09T14:19:19;10.60;;;10.30;;
727;SDS011;347;48.780;9.158;2022-09-09T14:21:45;10.70;;;10.30;;
727;SDS011;347;48.780;9.158;2022-09-09T14:24:10;11.50;;;11.00;;
727;SDS011;347;48.780;9.158;2022-09-09T14:26:37;11.80;;;11.00;;
727;SDS011;347;48.780;9.158;2022-09-09T14:29:03;11.70;;;11.00;;
727;SDS011;347;48.780;9.158;2022-09-09T14:31:28;10.70;;;10.40;;
727;SDS011;347;48.780;9.158;2022-09-09T14:33:54;11.27;;;10.87;;
727;SDS011;347;48.780;9.158;2022-09-09T14:36:20;11.30;;;10.90;;
727;SDS011;347;48.780;9.158;2022-09-09T14:38:46;10.93;;;10.50;;
727;SDS011;347;48.780;9.158;2022-09-09T14:41:13;10.40;;;10.10;;
727;SDS011;347;48.780;9.158;2022-09-09T14:43:44;11.17;;;10.57;;
727;SDS011;347;48.780;9.158;2022-09-09T14:46:11;11.03;;;10.40;;
727;SDS011;347;48.780;9.158;2022-09-09T14:48:39;10.97;;;10.57;;
727;SDS011;347;48.780;9.158;2022-09-09T14:51:06;10.70;;;10.30;;
727;SDS011;347;48.780;9.158;2022-09-09T14:53:35;11.40;;;10.90;;
727;SDS011;347;48.780;9.158;2022-09-09T14:56:07;10.37;;;10.07;;
727;SDS011;347;48.780;9.158;2022-09-09T14:58:34;10.90;;;10.60;;
727;SDS011;347;48.780;9.158;2022-09-09T15:01:34;11.07;;;10.70;;
727;SDS011;347;48.780;9.158;2022-09-09T15:03:55;10.80;;;10.30;;
727;SDS011;347;48.780;9.158;2022-09-09T15:06:23;10.70;;;10.20;;
727;SDS011;347;48.780;9.158;2022-09-09T15:08:50;10.90;;;10.43;;
727;SDS011;347;48.780;9.158;2022-09-09T15:11:17;10.83;;;10.43;;
727;SDS011;347;48.780;9.158;2022-09-09T15:13:45;10.50;;;10.00;;
727;SDS011;347;48.780;9.158;2022-09-09T15:18:37;10.50;;;10.20;;
727;SDS011;347;48.780;9.158;2022-09-09T15:21:08;10.27;;;9.90;;
727;SDS011;347;48.780;9.158;2022-09-09T15:23:35;10.53;;;10.17;;
727;SDS011;347;48.780;9.158;2022-09-09T15:26:01;9.80;;;9.50;;
727;SDS011;347;48.780;9.158;2022-09-09T15:28:27;10.10;;;9.80;;
727;SDS011;347;48.780;9.158;2022-09-09T15:30:53;11.53;;;11.03;;
727;SDS011;347;48.780;9.158;2022-09-09T15:33:20;10.70;;;10.30;;
727;SDS011;347;48.780;9.158;2022-09-09T15:35:46;10.33;;;9.87;;
727;SDS011;347;48.780;9.158;2022-09-09T15:38:12;10.63;;;10.00;;
727;SDS011;347;48.780;9.158;2022-09-09T15:40:38;10.40;;;10.10;;
727;SDS011;347;48.780;9.158;2022-09-09T15:43:05;10.17;;;9.77;;
727;SDS011;347;48.780;9.158;2022-09-09T15:45:32;10.20;;;9.80;;
727;SDS011;347;48.780;9.158;2022-09-09T15:47:59;10.10;;;9.70;;
727;SDS011;347;48.780;9.158;2022-09-09T15:50:28;10.57;;;10.27;;
727;SDS011;347;48.780;9.158;2022-09-09T15:52:56;10.03;;;9.73;;
727;SDS011;347;48.780;9.158;2022-09-09T15:55:22;9.97;;;9.67;;
727;SDS011;347;48.780;9.158;2022-09-09T15:57:49;10.10;;;9.80;;
727;SDS011;347;48.780;9.158;2022-09-09T16:00:17;11.80;;;11.20;;
727;SDS011;347;48.780;9.158;2022-09-09T16:02:43;10.53;;;10.00;;
727;SDS011;347;48.780;9.158;2022-09-09T16:05:09;11.93;;;11.43;;
727;SDS011;347;48.780;9.158;2022-09-09T16:07:34;10.60;;;10.20;;
727;SDS011;347;48.780;9.158;2022-09-09T16:10:01;10.50;;;10.10;;
727;SDS011;347;48.780;9.158;2022-09-09T16:12:27;10.90;;;10.50;;
727;SDS011;347;48.780;9.158;2022-09-09T16:14:53;10.90;;;10.37;;
727;SDS011;347;48.780;9.158;2022-09-09T16:17:18;10.33;;;9.83;;
727;SDS011;347;48.780;9.158;2022-09-09T16:19:45;10.20;;;9.80;;
727;SDS011;347;48.780;9.158;2022-09-09T16:22:11;9.40;;;9.10;;
727;SDS011;347;48.780;9.158;2022-09-09T16:24:36;9.90;;;9.50;;
727;SDS011;347;48.780;9.158;2022-09-09T16:27:02;10.47;;;9.77;;
727;SDS011;347;48.780;9.158;2022-09-09T16:29:28;9.90;;;9.60;;
727;SDS011;347;48.780;9.158;2022-09-09T16:31:54;10.17;;;9.87;;
727;SDS011;347;48.780;9.158;2022-09-09T16:34:20;10.73;;;10.23;;
727;SDS011;347;48.780;9.158;2022-09-09T16:36:46;10.87;;;10.57;;
727;SDS011;347;48.780;9.158;2022-09-09T16:39:17;10.70;;;10.40;;
727;SDS011;347;48.780;9.158;2022-09-09T16:41:45;10.10;;;9.80;;
727;SDS011;347;48.780;9.158;2022-09-09T16:44:13;10.30;;;9.90;;
727;SDS011;347;48.780;9.158;2022-09-09T16:46:44;10.80;;;10.30;;
727;SDS011;347;48.780;9.158;2022-09-09T16:49:14;10.10;;;9.80;;
727;SDS011;347;48.780;9.158;2022-09-09T16:51:41;10.10;;;9.80;;
727;SDS011;347;48.780;9.158;2022-09-09T16:54:12;10.57;;;10.07;;
727;SDS011;347;48.780;9.158;2022-09-09T16:56:39;10.70;;;10.40;;
727;SDS011;347;48.780;9.158;2022-09-09T16:59:11;10.13;;;9.83;;
727;SDS011;347;48.780;9.158;2022-09-09T17:01:41;11.37;;;10.77;;
727;SDS011;347;48.780;9.158;2022-09-09T17:04:12;10.70;;;10.20;;
727;SDS011;347;48.780;9.158;2022-09-09T17:06:41;10.73;;;10.33;;
727;SDS011;347;48.780;9.158;2022-09-09T17:09:10;10.50;;;10.20;;
727;SDS011;347;48.780;9.158;2022-09-09T17:11:37;10.23;;;9.80;;
727;SDS011;347;48.780;9.158;2022-09-09T17:14:03;9.50;;;9.20;;
727;SDS011;347;48.780;9.158;2022-09-09T17:16:30;10.70;;;10.30;;
727;SDS011;347;48.780;9.158;2022-09-09T17:18:58;10.97;;;10.57;;
727;SDS011;347;48.780;9.158;2022-09-09T17:21:26;10.93;;;10.07;;
727;SDS011;347;48.780;9.158;2022-09-09T17:23:53;11.40;;;10.83;;
727;SDS011;347;48.780;9.158;2022-09-09T17:26:20;10.50;;;10.20;;
727;SDS011;347;48.780;9.158;2022-09-09T17:28:47;12.70;;;12.00;;
727;SDS011;347;48.780;9.158;2022-09-09T17:31:14;10.50;;;10.10;;
727;SDS011;347;48.780;9.158;2022-09-09T17:33:42;10.60;;;10.20;;
727;SDS011;347;48.780;9.158;2022-09-09T17:36:11;10.63;;;10.23;;
727;SDS011;347;48.780;9.158;2022-09-09T17:38:39;10.43;;;10.03;;
727;SDS011;347;48.780;9.158;2022-09-09T17:41:09;11.20;;;10.90;;
727;SDS011;347;48.780;9.158;2022-09-09T17:43:34;11.43;;;11.03;;